createdAt,value
2018-04-15T00:00:21.118Z,978.44
2018-04-15T00:01:26.228Z,978.44
2018-04-15T00:02:21.118Z,978.44
2018-04-15T00:03:21.115Z,978.39
2018-04-15T00:04:21.115Z,978.40
2018-04-15T00:05:21.562Z,978.40
2018-04-15T00:06:21.119Z,978.43
2018-04-15T00:07:39.227Z,978.41
2018-04-15T00:08:21.540Z,978.41
2018-04-15T00:09:21.108Z,978.34
2018-04-15T00:10:21.104Z,978.38
2018-04-15T00:11:21.104Z,978.36
2018-04-15T00:12:23.190Z,978.34
2018-04-15T00:13:21.100Z,978.37
2018-04-15T00:14:21.100Z,978.32
2018-04-15T00:15:21.502Z,978.32
2018-04-15T00:16:21.097Z,978.30
2018-04-15T00:17:28.741Z,978.31
2018-04-15T00:18:21.157Z,978.28
2018-04-15T00:19:21.088Z,978.26
2018-04-15T00:20:21.112Z,978.24
2018-04-15T00:21:22.738Z,978.25
2018-04-15T00:22:21.090Z,978.26
2018-04-15T00:23:21.089Z,978.21
2018-04-15T00:24:21.088Z,978.21
2018-04-15T00:25:21.082Z,978.15
2018-04-15T00:26:21.082Z,978.13
2018-04-15T00:27:42.119Z,978.13
2018-04-15T00:28:21.084Z,978.17
2018-04-15T00:29:21.080Z,978.14
2018-04-15T00:30:21.075Z,978.12
2018-04-15T00:31:21.079Z,978.12
2018-04-15T00:32:37.740Z,978.10
2018-04-15T00:33:21.071Z,978.07
2018-04-15T00:34:21.073Z,978.09
2018-04-15T00:35:21.066Z,978.08
2018-04-15T00:36:21.070Z,978.12
2018-04-15T00:37:45.250Z,978.09
2018-04-15T00:38:21.061Z,978.05
2018-04-15T00:39:21.065Z,978.07
2018-04-15T00:40:21.060Z,978.02
2018-04-15T00:41:21.744Z,978.03
2018-04-15T00:42:21.060Z,978.03
2018-04-15T00:43:21.049Z,977.98
2018-04-15T00:44:21.057Z,977.95
2018-04-15T00:45:21.047Z,977.90
2018-04-15T00:47:52.724Z,977.81
2018-04-15T00:48:52.672Z,977.82
2018-04-15T00:49:52.671Z,977.79
2018-04-15T00:50:52.674Z,977.75
2018-04-15T00:52:18.811Z,977.72
2018-04-15T00:52:52.667Z,977.69
2018-04-15T00:53:52.663Z,977.66
2018-04-15T00:54:52.663Z,977.61
2018-04-15T00:56:21.302Z,977.57
2018-04-15T00:56:52.660Z,977.59
2018-04-15T00:57:52.658Z,977.61
2018-04-15T00:58:52.652Z,977.60
2018-04-15T00:59:52.657Z,977.56
2018-04-15T01:00:52.702Z,977.56
2018-04-15T01:01:52.653Z,977.60
2018-04-15T01:02:52.654Z,977.61
2018-04-15T01:03:52.649Z,977.63
2018-04-15T01:04:52.651Z,977.64
2018-04-15T01:06:00.307Z,977.62
2018-04-15T01:06:52.642Z,977.63
2018-04-15T01:07:52.702Z,977.59
2018-04-15T01:08:52.641Z,977.60
2018-04-15T01:09:52.640Z,977.60
2018-04-15T01:10:52.804Z,977.61
2018-04-15T01:11:52.635Z,977.58
2018-04-15T01:12:52.637Z,977.56
2018-04-15T01:13:52.635Z,977.57
2018-04-15T01:14:52.627Z,977.54
2018-04-15T01:15:52.671Z,977.58
2018-04-15T01:16:52.627Z,977.57
2018-04-15T01:17:52.628Z,977.55
2018-04-15T01:18:52.619Z,977.54
2018-04-15T01:19:52.623Z,977.58
2018-04-15T01:21:03.307Z,977.56
2018-04-15T01:21:52.620Z,977.56
2018-04-15T01:22:52.628Z,977.57
2018-04-15T01:23:52.616Z,977.54
2018-04-15T01:24:52.619Z,977.57
2018-04-15T01:25:57.813Z,977.55
2018-04-15T01:26:52.611Z,977.53
2018-04-15T01:27:52.630Z,977.51
2018-04-15T01:28:52.609Z,977.55
2018-04-15T01:29:52.609Z,977.56
2018-04-15T01:30:52.610Z,977.55
2018-04-15T01:31:53.314Z,977.58
2018-04-15T01:32:52.600Z,977.56
2018-04-15T01:33:52.593Z,977.55
2018-04-15T01:34:52.600Z,977.56
2018-04-15T01:35:53.520Z,977.58
2018-04-15T01:38:54.860Z,977.54
2018-04-15T01:39:24.228Z,977.56
2018-04-15T01:40:24.224Z,977.47
2018-04-15T01:43:06.484Z,977.41
2018-04-15T01:43:55.797Z,977.43
2018-04-15T01:44:55.790Z,977.40
2018-04-15T01:45:55.796Z,977.37
2018-04-15T01:47:30.986Z,977.38
2018-04-15T01:47:55.785Z,977.38
2018-04-15T01:48:56.738Z,977.33
2018-04-15T01:49:55.785Z,977.31
2018-04-15T01:50:55.788Z,977.33
2018-04-15T01:52:16.978Z,977.34
2018-04-15T01:52:55.776Z,977.35
2018-04-15T01:53:55.773Z,977.37
2018-04-15T01:54:55.773Z,977.39
2018-04-15T01:55:56.477Z,977.38
2018-04-15T01:57:00.974Z,977.42
2018-04-15T01:57:55.766Z,977.41
2018-04-15T01:58:55.765Z,977.43
2018-04-15T01:59:55.761Z,977.43
2018-04-15T02:00:55.757Z,977.44
2018-04-15T02:01:58.974Z,977.49
2018-04-15T02:02:55.754Z,977.48
2018-04-15T02:03:55.756Z,977.48
2018-04-15T02:04:55.805Z,977.46
2018-04-15T02:05:55.751Z,977.47
2018-04-15T02:07:19.974Z,977.45
2018-04-15T02:07:56.664Z,977.42
2018-04-15T02:09:01.021Z,977.44
2018-04-15T02:09:55.738Z,977.47
2018-04-15T02:10:57.160Z,977.46
2018-04-15T02:11:58.235Z,977.47
2018-04-15T02:13:00.280Z,977.47
2018-04-15T02:13:58.711Z,977.43
2018-04-15T02:14:58.917Z,977.43
2018-04-15T02:15:59.710Z,977.39
2018-04-15T02:17:30.976Z,977.34
2018-04-15T02:17:57.017Z,977.30
2018-04-15T02:18:55.944Z,977.34
2018-04-15T02:19:58.265Z,977.31
2018-04-15T02:20:56.368Z,977.28
2018-04-15T02:21:58.768Z,977.25
2018-04-15T02:22:57.796Z,977.22
2018-04-15T02:23:57.765Z,977.22
2018-04-15T02:24:58.831Z,977.20
2018-04-15T02:25:55.836Z,977.21
2018-04-15T02:27:02.275Z,977.16
2018-04-15T02:28:00.271Z,977.21
2018-04-15T02:29:00.119Z,977.21
2018-04-15T02:29:56.400Z,977.20
2018-04-15T02:30:57.768Z,977.17
2018-04-15T02:31:57.271Z,977.15
2018-04-15T02:32:55.699Z,977.15
2018-04-15T02:34:11.044Z,977.18
2018-04-15T02:34:55.693Z,977.17
2018-04-15T02:35:56.956Z,977.15
2018-04-15T02:36:56.498Z,977.15
2018-04-15T02:37:58.719Z,977.11
2018-04-15T02:40:34.752Z,977.01
2018-04-15T02:41:31.720Z,977.01
2018-04-15T02:42:29.210Z,976.95
2018-04-15T02:43:28.936Z,976.96
2018-04-15T02:44:30.440Z,977.01
2018-04-15T02:45:30.738Z,976.97
2018-04-15T02:46:27.413Z,976.96
2018-04-15T02:47:28.547Z,976.94
2018-04-15T02:48:29.445Z,976.93
2018-04-15T02:49:27.503Z,976.91
2018-04-15T02:50:30.114Z,976.91
2018-04-15T02:51:28.727Z,976.90
2018-04-15T02:52:27.832Z,976.86
2018-04-15T02:53:53.631Z,976.84
2018-04-15T02:54:28.477Z,976.85
2018-04-15T02:55:27.491Z,976.87
2018-04-15T02:56:29.280Z,976.89
2018-04-15T02:57:27.945Z,976.87
2018-04-15T02:58:27.297Z,976.90
2018-04-15T02:59:41.430Z,976.91
2018-04-15T03:00:27.359Z,976.88
2018-04-15T03:01:27.282Z,976.86
2018-04-15T03:02:27.289Z,976.87
2018-04-15T03:03:27.682Z,976.84
2018-04-15T03:04:37.922Z,976.87
2018-04-15T03:05:27.270Z,976.87
2018-04-15T03:06:27.308Z,976.89
2018-04-15T03:07:27.305Z,976.89
2018-04-15T03:08:27.264Z,976.83
2018-04-15T03:09:27.930Z,976.86
2018-04-15T03:10:27.259Z,976.83
2018-04-15T03:11:27.254Z,976.82
2018-04-15T03:12:27.247Z,976.84
2018-04-15T03:13:27.251Z,976.85
2018-04-15T03:14:27.246Z,976.81
2018-04-15T03:15:53.422Z,976.84
2018-04-15T03:16:27.246Z,976.79
2018-04-15T03:17:27.238Z,976.80
2018-04-15T03:18:27.236Z,976.82
2018-04-15T03:19:27.239Z,976.86
2018-04-15T03:20:32.531Z,976.90
2018-04-15T03:21:27.257Z,976.90
2018-04-15T03:22:27.220Z,976.92
2018-04-15T03:23:27.223Z,976.95
2018-04-15T03:24:27.220Z,976.94
2018-04-15T03:25:32.426Z,976.91
2018-04-15T03:26:27.216Z,976.92
2018-04-15T03:27:27.456Z,976.90
2018-04-15T03:28:27.208Z,976.88
2018-04-15T03:29:27.204Z,976.85
2018-04-15T03:31:59.955Z,976.85
2018-04-15T03:32:58.758Z,976.85
2018-04-15T03:33:58.753Z,976.83
2018-04-15T03:34:58.750Z,976.82
2018-04-15T03:36:03.951Z,976.80
2018-04-15T03:36:58.744Z,976.77
2018-04-15T03:37:58.739Z,976.77
2018-04-15T03:38:58.739Z,976.77
2018-04-15T03:39:58.728Z,976.77
2018-04-15T03:42:30.400Z,976.77
2018-04-15T03:43:30.360Z,976.79
2018-04-15T03:44:30.359Z,976.76
2018-04-15T03:45:40.984Z,976.78
2018-04-15T03:46:30.347Z,976.74
2018-04-15T03:47:30.348Z,976.74
2018-04-15T03:48:30.349Z,976.77
2018-04-15T03:49:30.339Z,976.75
2018-04-15T03:52:09.593Z,976.82
2018-04-15T03:53:01.957Z,976.83
2018-04-15T03:54:02.092Z,976.80
2018-04-15T03:55:28.096Z,976.81
2018-04-15T03:56:01.978Z,976.81
2018-04-15T03:57:01.945Z,976.83
2018-04-15T03:58:01.942Z,976.85
2018-04-15T03:59:01.942Z,976.86
2018-04-15T04:00:24.595Z,976.87
2018-04-15T04:01:01.938Z,976.84
2018-04-15T04:02:01.936Z,976.84
2018-04-15T04:03:01.936Z,976.84
2018-04-15T04:04:01.927Z,976.82
2018-04-15T04:05:09.593Z,976.77
2018-04-15T04:06:01.917Z,976.77
2018-04-15T04:07:02.384Z,976.79
2018-04-15T04:08:02.250Z,976.81
2018-04-15T04:09:01.913Z,976.83
2018-04-15T04:10:02.083Z,976.89
2018-04-15T04:11:01.907Z,976.88
2018-04-15T04:12:02.466Z,976.86
2018-04-15T04:13:01.898Z,976.85
2018-04-15T04:14:01.945Z,976.82
2018-04-15T04:15:01.947Z,976.77
2018-04-15T04:16:01.889Z,976.73
2018-04-15T04:17:01.889Z,976.72
2018-04-15T04:18:01.895Z,976.65
2018-04-15T04:19:01.888Z,976.67
2018-04-15T04:20:03.599Z,976.63
2018-04-15T04:21:01.879Z,976.65
2018-04-15T04:22:01.879Z,976.59
2018-04-15T04:23:01.870Z,976.60
2018-04-15T04:24:01.871Z,976.56
2018-04-15T04:25:02.086Z,976.53
2018-04-15T04:26:01.864Z,976.55
2018-04-15T04:27:01.864Z,976.56
2018-04-15T04:28:01.858Z,976.58
2018-04-15T04:29:01.855Z,976.57
2018-04-15T04:30:05.088Z,976.53
2018-04-15T04:31:01.854Z,976.53
2018-04-15T04:32:01.915Z,976.52
2018-04-15T04:33:01.855Z,976.51
2018-04-15T04:34:01.841Z,976.51
2018-04-15T04:35:02.591Z,976.52
2018-04-15T04:36:02.217Z,976.48
2018-04-15T04:37:01.835Z,976.47
2018-04-15T04:38:01.830Z,976.45
2018-04-15T04:39:01.825Z,976.48
2018-04-15T04:40:01.865Z,976.49
2018-04-15T04:41:01.820Z,976.46
2018-04-15T04:42:01.814Z,976.47
2018-04-15T04:43:01.815Z,976.42
2018-04-15T04:44:01.814Z,976.44
2018-04-15T04:45:02.611Z,976.47
2018-04-15T04:46:01.804Z,976.45
2018-04-15T04:47:01.811Z,976.36
2018-04-15T04:48:01.807Z,976.39
2018-04-15T04:49:01.795Z,976.40
2018-04-15T04:50:07.085Z,976.38
2018-04-15T04:51:01.793Z,976.37
2018-04-15T04:52:01.789Z,976.33
2018-04-15T04:53:02.416Z,976.37
2018-04-15T04:54:01.789Z,976.32
2018-04-15T04:55:22.825Z,976.34
2018-04-15T04:56:01.777Z,976.30
2018-04-15T04:57:01.773Z,976.30
2018-04-15T04:58:02.448Z,976.32
2018-04-15T04:59:01.769Z,976.32
2018-04-15T05:00:30.596Z,976.27
2018-04-15T05:01:02.337Z,976.24
2018-04-15T05:02:01.765Z,976.22
2018-04-15T05:03:01.757Z,976.27
2018-04-15T05:04:01.755Z,976.24
2018-04-15T05:05:01.799Z,976.22
2018-04-15T05:06:01.750Z,976.21
2018-04-15T05:07:01.750Z,976.19
2018-04-15T05:08:01.746Z,976.20
2018-04-15T05:09:01.744Z,976.19
2018-04-15T05:10:09.580Z,976.19
2018-04-15T05:11:01.738Z,976.17
2018-04-15T05:12:01.735Z,976.16
2018-04-15T05:13:01.733Z,976.16
2018-04-15T05:14:01.729Z,976.12
2018-04-15T05:15:28.089Z,976.13
2018-04-15T05:16:01.731Z,976.17
2018-04-15T05:17:01.749Z,976.10
2018-04-15T05:18:01.723Z,976.11
2018-04-15T05:19:01.722Z,976.12
2018-04-15T05:20:23.590Z,976.14
2018-04-15T05:21:01.715Z,976.13
2018-04-15T05:22:01.713Z,976.11
2018-04-15T05:23:01.711Z,976.07
2018-04-15T05:24:01.705Z,976.09
2018-04-15T05:25:23.448Z,976.07
2018-04-15T05:26:02.478Z,976.03
2018-04-15T05:27:01.702Z,975.99
2018-04-15T05:28:01.702Z,975.98
2018-04-15T05:29:01.698Z,975.93
2018-04-15T05:30:03.588Z,975.92
2018-04-15T05:31:01.693Z,975.89
2018-04-15T05:32:01.698Z,975.83
2018-04-15T05:33:01.689Z,975.87
2018-04-15T05:34:01.691Z,975.84
2018-04-15T05:35:07.100Z,975.84
2018-04-15T05:36:01.688Z,975.84
2018-04-15T05:37:01.686Z,975.87
2018-04-15T05:38:01.679Z,975.88
2018-04-15T05:39:01.688Z,975.90
2018-04-15T05:40:20.114Z,975.85
2018-04-15T05:41:01.683Z,975.83
2018-04-15T05:42:01.678Z,975.80
2018-04-15T05:43:01.681Z,975.78
2018-04-15T05:44:01.675Z,975.81
2018-04-15T05:45:02.415Z,975.82
2018-04-15T05:46:02.101Z,975.78
2018-04-15T05:47:01.675Z,975.81
2018-04-15T05:48:01.671Z,975.84
2018-04-15T05:49:01.671Z,975.82
2018-04-15T05:50:01.670Z,975.83
2018-04-15T05:51:02.107Z,975.79
2018-04-15T05:52:01.665Z,975.83
2018-04-15T05:53:01.664Z,975.79
2018-04-15T05:54:01.668Z,975.81
2018-04-15T05:55:01.668Z,975.81
2018-04-15T05:56:16.103Z,975.76
2018-04-15T05:57:01.663Z,975.76
2018-04-15T05:58:01.663Z,975.74
2018-04-15T05:59:01.661Z,975.76
2018-04-15T06:00:01.665Z,975.73
2018-04-15T06:01:20.116Z,975.75
2018-04-15T06:02:01.663Z,975.73
2018-04-15T06:03:01.665Z,975.72
2018-04-15T06:04:01.665Z,975.67
2018-04-15T06:05:01.656Z,975.69
2018-04-15T06:06:02.588Z,975.69
2018-04-15T06:07:01.659Z,975.66
2018-04-15T06:08:01.659Z,975.69
2018-04-15T06:09:01.660Z,975.64
2018-04-15T06:10:01.656Z,975.61
2018-04-15T06:11:02.588Z,975.59
2018-04-15T06:12:01.741Z,975.60
2018-04-15T06:13:01.660Z,975.56
2018-04-15T06:14:01.667Z,975.57
2018-04-15T06:15:01.668Z,975.61
2018-04-15T06:16:22.716Z,975.62
2018-04-15T06:17:01.660Z,975.55
2018-04-15T06:18:01.660Z,975.55
2018-04-15T06:19:01.662Z,975.57
2018-04-15T06:20:02.344Z,975.56
2018-04-15T06:21:01.661Z,975.51
2018-04-15T06:22:02.169Z,975.49
2018-04-15T06:23:01.664Z,975.48
2018-04-15T06:24:01.662Z,975.45
2018-04-15T06:25:01.666Z,975.44
2018-04-15T06:26:01.666Z,975.42
2018-04-15T06:27:01.781Z,975.41
2018-04-15T06:28:01.665Z,975.40
2018-04-15T06:29:01.662Z,975.39
2018-04-15T06:30:01.667Z,975.36
2018-04-15T06:31:01.662Z,975.36
2018-04-15T06:32:02.212Z,975.40
2018-04-15T06:33:01.717Z,975.38
2018-04-15T06:34:01.668Z,975.35
2018-04-15T06:35:01.671Z,975.37
2018-04-15T06:36:01.668Z,975.37
2018-04-15T06:37:02.108Z,975.34
2018-04-15T06:38:02.216Z,975.34
2018-04-15T06:39:01.676Z,975.32
2018-04-15T06:40:01.676Z,975.27
2018-04-15T06:41:01.676Z,975.27
2018-04-15T06:42:01.727Z,975.25
2018-04-15T06:43:02.617Z,975.23
2018-04-15T06:44:01.681Z,975.21
2018-04-15T06:45:01.683Z,975.28
2018-04-15T06:46:01.682Z,975.28
2018-04-15T06:47:05.091Z,975.18
2018-04-15T06:48:01.685Z,975.18
2018-04-15T06:49:01.681Z,975.15
2018-04-15T06:50:01.690Z,975.16
2018-04-15T06:51:01.689Z,975.15
2018-04-15T06:52:01.857Z,975.13
2018-04-15T06:53:01.697Z,975.06
2018-04-15T06:54:01.697Z,975.10
2018-04-15T06:55:01.701Z,975.07
2018-04-15T06:56:01.699Z,975.09
2018-04-15T06:57:16.138Z,975.07
2018-04-15T06:58:01.707Z,975.09
2018-04-15T06:59:01.702Z,975.12
2018-04-15T07:00:02.146Z,975.09
2018-04-15T07:01:03.594Z,975.06
2018-04-15T07:02:01.716Z,975.01
2018-04-15T07:03:01.713Z,975.08
2018-04-15T07:04:01.713Z,975.07
2018-04-15T07:05:01.715Z,975.10
2018-04-15T07:06:07.113Z,974.97
2018-04-15T07:07:01.726Z,974.94
2018-04-15T07:08:01.731Z,974.96
2018-04-15T07:09:01.729Z,975.03
2018-04-15T07:10:01.738Z,975.11
2018-04-15T07:11:02.132Z,975.17
2018-04-15T07:12:01.739Z,975.18
2018-04-15T07:13:01.754Z,975.14
2018-04-15T07:14:01.752Z,975.10
2018-04-15T07:15:01.764Z,975.07
2018-04-15T07:16:02.091Z,974.96
2018-04-15T07:17:01.764Z,974.97
2018-04-15T07:18:01.769Z,974.97
2018-04-15T07:19:01.774Z,975.02
2018-04-15T07:20:01.780Z,974.97
2018-04-15T07:21:02.595Z,974.92
2018-04-15T07:22:01.784Z,974.96
2018-04-15T07:23:01.789Z,974.99
2018-04-15T07:24:01.793Z,974.95
2018-04-15T07:25:01.796Z,974.90
2018-04-15T07:26:03.595Z,974.91
2018-04-15T07:27:01.808Z,974.95
2018-04-15T07:28:01.815Z,974.96
2018-04-15T07:29:01.821Z,974.99
2018-04-15T07:30:01.826Z,974.99
2018-04-15T07:31:03.598Z,975.00
2018-04-15T07:32:01.831Z,975.00
2018-04-15T07:33:01.844Z,975.04
2018-04-15T07:34:01.844Z,975.04
2018-04-15T07:35:01.847Z,975.12
2018-04-15T07:36:23.134Z,975.15
2018-04-15T07:37:01.857Z,975.19
2018-04-15T07:38:01.862Z,975.17
2018-04-15T07:39:02.268Z,975.18
2018-04-15T07:40:01.882Z,975.19
2018-04-15T07:42:54.452Z,975.22
2018-04-15T07:43:33.457Z,975.26
2018-04-15T07:44:33.466Z,975.22
2018-04-15T07:45:33.478Z,975.20
2018-04-15T07:46:41.149Z,975.29
2018-04-15T07:47:33.485Z,975.32
2018-04-15T07:48:33.490Z,975.31
2018-04-15T07:49:33.974Z,975.37
2018-04-15T07:50:33.508Z,975.39
2018-04-15T07:51:36.649Z,975.36
2018-04-15T07:52:33.517Z,975.40
2018-04-15T07:53:33.523Z,975.45
2018-04-15T07:54:33.530Z,975.44
2018-04-15T07:55:33.535Z,975.47
2018-04-15T07:56:54.646Z,975.49
2018-04-15T07:57:33.554Z,975.47
2018-04-15T07:58:33.558Z,975.49
2018-04-15T07:59:33.570Z,975.48
2018-04-15T08:00:33.572Z,975.49
2018-04-15T08:01:35.155Z,975.45
2018-04-15T08:02:33.677Z,975.49
2018-04-15T08:03:33.598Z,975.47
2018-04-15T08:04:33.603Z,975.46
2018-04-15T08:05:33.614Z,975.49
2018-04-15T08:06:52.146Z,975.55
2018-04-15T08:07:33.629Z,975.59
2018-04-15T08:08:33.635Z,975.58
2018-04-15T08:09:33.639Z,975.58
2018-04-15T08:10:33.651Z,975.53
2018-04-15T08:11:37.144Z,975.50
2018-04-15T08:12:33.669Z,975.48
2018-04-15T08:13:33.676Z,975.47
2018-04-15T08:14:33.682Z,975.46
2018-04-15T08:15:33.695Z,975.48
2018-04-15T08:18:27.364Z,975.41
2018-04-15T08:19:05.331Z,975.37
2018-04-15T08:20:05.343Z,975.33
2018-04-15T08:21:05.353Z,975.33
2018-04-15T08:26:44.796Z,975.31
2018-04-15T08:27:40.380Z,975.29
2018-04-15T08:28:40.388Z,975.27
2018-04-15T08:29:40.400Z,975.27
2018-04-15T08:30:40.404Z,975.32
2018-04-15T08:31:40.415Z,975.29
2018-04-15T08:34:15.203Z,975.24
2018-04-15T08:35:12.008Z,975.19
2018-04-15T08:36:12.012Z,975.16
2018-04-15T08:37:13.703Z,975.20
2018-04-15T08:38:12.416Z,975.23
2018-04-15T08:39:13.411Z,975.12
2018-04-15T08:40:12.051Z,975.17
2018-04-15T08:41:12.064Z,975.15
2018-04-15T08:42:47.209Z,975.10
2018-04-15T08:43:12.125Z,975.12
2018-04-15T08:44:12.096Z,975.14
2018-04-15T08:45:12.104Z,975.14
2018-04-15T08:46:12.122Z,975.12
2018-04-15T08:50:41.470Z,975.06
2018-04-15T08:51:15.361Z,975.02
2018-04-15T08:52:15.415Z,975.00
2018-04-15T08:53:15.651Z,974.99
2018-04-15T08:54:15.398Z,974.92
2018-04-15T08:55:15.403Z,974.91
2018-04-15T08:56:15.415Z,974.88
2018-04-15T08:57:16.990Z,974.83
2018-04-15T08:58:15.442Z,974.81
2018-04-15T08:59:15.457Z,974.79
2018-04-15T09:00:15.466Z,974.84
2018-04-15T09:01:15.467Z,974.84
2018-04-15T09:02:36.530Z,974.84
2018-04-15T09:03:15.499Z,974.85
2018-04-15T09:04:15.503Z,974.85
2018-04-15T09:05:15.520Z,974.87
2018-04-15T09:06:20.989Z,974.83
2018-04-15T09:07:15.534Z,974.80
2018-04-15T09:08:15.548Z,974.74
2018-04-15T09:09:16.543Z,974.70
2018-04-15T09:10:15.690Z,974.69
2018-04-15T09:11:51.001Z,974.77
2018-04-15T09:12:15.611Z,974.80
2018-04-15T09:13:15.837Z,974.71
2018-04-15T09:14:15.627Z,974.72
2018-04-15T09:15:15.618Z,974.73
2018-04-15T09:16:16.031Z,974.72
2018-04-15T09:17:15.684Z,974.64
2018-04-15T09:18:15.697Z,974.56
2018-04-15T09:19:17.809Z,974.57
2018-04-15T09:20:17.469Z,974.57
2018-04-15T09:21:16.040Z,974.51
2018-04-15T09:22:15.900Z,974.54
2018-04-15T09:23:15.819Z,974.61
2018-04-15T09:24:16.911Z,974.64
2018-04-15T09:25:17.934Z,974.68
2018-04-15T09:26:15.862Z,974.65
2018-04-15T09:27:15.812Z,974.61
2018-04-15T09:28:15.784Z,974.55
2018-04-15T09:29:15.796Z,974.61
2018-04-15T09:30:15.808Z,974.64
2018-04-15T09:31:16.510Z,974.64
2018-04-15T09:32:15.836Z,974.64
2018-04-15T09:33:15.851Z,974.62
2018-04-15T09:34:15.864Z,974.66
2018-04-15T09:35:15.894Z,974.62
2018-04-15T09:36:36.988Z,974.65
2018-04-15T09:37:15.911Z,974.67
2018-04-15T09:38:16.179Z,974.67
2018-04-15T09:39:15.944Z,974.62
2018-04-15T09:40:24.010Z,974.62
2018-04-15T09:41:15.978Z,974.65
2018-04-15T09:42:16.720Z,974.68
2018-04-15T09:43:16.014Z,974.59
2018-04-15T09:44:16.636Z,974.62
2018-04-15T09:45:24.000Z,974.63
2018-04-15T09:46:16.064Z,974.58
2018-04-15T09:47:16.079Z,974.54
2018-04-15T09:48:16.112Z,974.53
2018-04-15T09:49:16.112Z,974.57
2018-04-15T09:50:16.564Z,974.63
2018-04-15T09:51:34.508Z,974.61
2018-04-15T09:52:16.169Z,974.61
2018-04-15T09:53:16.188Z,974.62
2018-04-15T09:54:16.204Z,974.50
2018-04-15T09:55:16.222Z,974.56
2018-04-15T09:56:16.542Z,974.53
2018-04-15T09:57:16.262Z,974.50
2018-04-15T09:58:16.282Z,974.45
2018-04-15T09:59:16.322Z,974.57
2018-04-15T10:00:16.323Z,974.49
2018-04-15T10:01:16.376Z,974.31
2018-04-15T10:02:16.355Z,974.40
2018-04-15T10:03:16.383Z,974.46
2018-04-15T10:04:16.576Z,974.46
2018-04-15T10:05:16.408Z,974.35
2018-04-15T10:06:16.493Z,974.37
2018-04-15T10:07:16.454Z,974.40
2018-04-15T10:08:16.478Z,974.34
2018-04-15T10:09:16.496Z,974.45
2018-04-15T10:10:16.513Z,974.43
2018-04-15T10:11:18.519Z,974.40
2018-04-15T10:12:16.575Z,974.43
2018-04-15T10:13:16.566Z,974.47
2018-04-15T10:14:16.582Z,974.47
2018-04-15T10:15:16.599Z,974.53
2018-04-15T10:16:17.006Z,974.59
2018-04-15T10:17:16.636Z,974.53
2018-04-15T10:18:16.653Z,974.43
2018-04-15T10:19:16.676Z,974.43
2018-04-15T10:20:16.708Z,974.49
2018-04-15T10:21:18.513Z,974.45
2018-04-15T10:22:16.731Z,974.46
2018-04-15T10:23:16.752Z,974.41
2018-04-15T10:24:16.977Z,974.43
2018-04-15T10:25:16.789Z,974.40
2018-04-15T10:26:16.845Z,974.41
2018-04-15T10:28:49.078Z,974.40
2018-04-15T10:29:48.524Z,974.48
2018-04-15T10:30:48.540Z,974.43
2018-04-15T10:31:59.592Z,974.37
2018-04-15T10:32:48.584Z,974.34
2018-04-15T10:33:48.597Z,974.18
2018-04-15T10:34:48.620Z,974.12
2018-04-15T10:35:48.642Z,974.05
2018-04-15T10:36:49.104Z,974.06
2018-04-15T10:37:48.679Z,974.08
2018-04-15T10:38:48.718Z,974.03
2018-04-15T10:39:48.715Z,974.03
2018-04-15T10:40:48.734Z,974.08
2018-04-15T10:41:49.099Z,974.08
2018-04-15T10:42:48.771Z,974.08
2018-04-15T10:43:48.790Z,974.12
2018-04-15T10:44:48.827Z,974.15
2018-04-15T10:45:48.811Z,974.10
2018-04-15T10:46:52.104Z,974.11
2018-04-15T10:47:48.855Z,974.09
2018-04-15T10:48:48.942Z,974.06
2018-04-15T10:49:48.886Z,974.03
2018-04-15T10:50:48.896Z,974.04
2018-04-15T10:51:50.616Z,974.05
2018-04-15T10:52:49.549Z,974.04
2018-04-15T10:53:48.948Z,974.03
2018-04-15T10:54:48.963Z,974.03
2018-04-15T10:55:48.972Z,974.01
2018-04-15T10:56:49.045Z,974.01
2018-04-15T10:57:49.005Z,973.99
2018-04-15T10:58:49.017Z,974.03
2018-04-15T10:59:49.050Z,974.09
2018-04-15T11:00:49.046Z,974.04
2018-04-15T11:01:56.627Z,974.01
2018-04-15T11:02:49.078Z,974.11
2018-04-15T11:03:49.090Z,974.17
2018-04-15T11:04:49.104Z,974.03
2018-04-15T11:05:49.616Z,973.99
2018-04-15T11:06:49.622Z,974.05
2018-04-15T11:07:49.150Z,974.06
2018-04-15T11:08:49.167Z,974.04
2018-04-15T11:09:49.179Z,974.01
2018-04-15T11:10:49.196Z,974.07
2018-04-15T11:11:51.111Z,974.03
2018-04-15T11:12:50.067Z,974.07
2018-04-15T11:13:49.243Z,974.10
2018-04-15T11:14:49.253Z,974.15
2018-04-15T11:15:50.067Z,974.13
2018-04-15T11:16:49.327Z,974.16
2018-04-15T11:17:49.403Z,974.17
2018-04-15T11:18:49.316Z,974.18
2018-04-15T11:19:49.336Z,974.17
2018-04-15T11:20:49.356Z,974.20
2018-04-15T11:22:03.622Z,974.16
2018-04-15T11:22:50.179Z,974.20
2018-04-15T11:23:49.967Z,974.15
2018-04-15T11:24:49.430Z,974.18
2018-04-15T11:25:50.449Z,974.14
2018-04-15T11:26:49.484Z,974.06
2018-04-15T11:27:49.481Z,974.07
2018-04-15T11:28:49.495Z,974.08
2018-04-15T11:29:49.514Z,974.13
2018-04-15T11:35:24.854Z,974.03
2018-04-15T11:36:29.637Z,974.06
2018-04-15T11:37:26.431Z,974.10
2018-04-15T11:38:24.604Z,974.10
2018-04-15T11:39:24.585Z,974.07
2018-04-15T11:40:24.604Z,974.10
2018-04-15T11:42:57.421Z,974.03
2018-04-15T11:43:56.282Z,973.97
2018-04-15T11:44:56.281Z,974.01
2018-04-15T11:45:56.418Z,973.95
2018-04-15T11:46:56.328Z,974.00
2018-04-15T11:47:56.457Z,973.89
2018-04-15T11:48:56.374Z,973.93
2018-04-15T11:49:56.390Z,973.90
2018-04-15T11:50:56.948Z,973.83
2018-04-15T11:51:56.453Z,973.79
2018-04-15T11:52:56.447Z,973.81
2018-04-15T11:53:56.468Z,973.86
2018-04-15T11:54:56.491Z,973.84
2018-04-15T11:55:56.559Z,973.81
2018-04-15T11:56:56.529Z,973.79
2018-04-15T11:57:56.557Z,973.88
2018-04-15T11:58:56.572Z,973.95
2018-04-15T11:59:56.599Z,973.89
2018-04-15T12:00:56.660Z,973.88
2018-04-15T12:01:56.641Z,973.79
2018-04-15T12:02:56.825Z,973.78
2018-04-15T12:03:56.697Z,973.71
2018-04-15T12:04:56.700Z,973.73
2018-04-15T12:05:57.716Z,973.75
2018-04-15T12:06:56.754Z,973.67
2018-04-15T12:07:56.786Z,973.70
2018-04-15T12:08:56.779Z,973.71
2018-04-15T12:09:56.805Z,973.69
2018-04-15T12:10:59.061Z,973.72
2018-04-15T12:11:56.841Z,973.72
2018-04-15T12:12:56.855Z,973.67
2018-04-15T12:13:57.874Z,973.58
2018-04-15T12:14:56.910Z,973.60
2018-04-15T12:15:57.037Z,973.61
2018-04-15T12:16:56.941Z,973.62
2018-04-15T12:17:56.958Z,973.66
2018-04-15T12:18:56.985Z,973.63
2018-04-15T12:19:56.998Z,973.65
2018-04-15T12:20:57.015Z,973.66
2018-04-15T12:21:58.926Z,973.59
2018-04-15T12:22:57.056Z,973.59
2018-04-15T12:23:57.075Z,973.63
2018-04-15T12:24:57.095Z,973.60
2018-04-15T12:25:57.168Z,973.58
2018-04-15T12:26:57.429Z,973.59
2018-04-15T12:27:57.157Z,973.57
2018-04-15T12:28:57.177Z,973.63
2018-04-15T12:29:57.197Z,973.61
2018-04-15T12:31:23.766Z,973.59
2018-04-15T12:31:57.242Z,973.59
2018-04-15T12:32:57.260Z,973.60
2018-04-15T12:33:58.079Z,973.59
2018-04-15T12:34:57.298Z,973.57
2018-04-15T12:35:58.923Z,973.54
2018-04-15T12:37:11.416Z,973.55
2018-04-15T12:37:57.377Z,973.56
2018-04-15T12:38:57.381Z,973.50
2018-04-15T12:39:58.384Z,973.38
2018-04-15T12:40:57.495Z,973.43
2018-04-15T12:42:02.938Z,973.48
2018-04-15T12:42:57.471Z,973.43
2018-04-15T12:43:57.501Z,973.45
2018-04-15T12:44:58.320Z,973.39
2018-04-15T12:45:57.541Z,973.38
2018-04-15T12:46:58.395Z,973.34
2018-04-15T12:47:58.263Z,973.24
2018-04-15T12:48:58.413Z,973.26
2018-04-15T12:49:57.637Z,973.30
2018-04-15T12:50:57.786Z,973.37
2018-04-15T12:52:00.721Z,973.32
2018-04-15T12:53:00.722Z,973.31
2018-04-15T12:53:57.867Z,973.33
2018-04-15T12:55:02.231Z,973.14
2018-04-15T12:55:59.531Z,973.32
2018-04-15T12:56:57.816Z,973.27
2018-04-15T12:57:57.834Z,973.29
2018-04-15T12:58:57.839Z,973.23